This is the latest recevied weather packets stored in our database for station/object OE6JUE. If no packets are shown the sender has not sent any weather packets the latest 10 day(s).
| Time | Temp. | Humidity | Pressure | Rain* | Wind** | Luminosity | Snow |
|---|---|---|---|---|---|---|---|
| 1777994533 | 20° C | 44% | 1011.2 hPa | 0 mm | - | - | - |
| 1777994233 | 20° C | 44% | 1011.3 hPa | 0 mm | - | - | - |
| 1777993933 | 20.56° C | 44% | 1011.2 hPa | 0 mm | - | - | - |
| 1777993633 | 20.56° C | 44% | 1011.3 hPa | 0 mm | - | - | - |
| 1777993333 | 20.56° C | 43% | 1011.3 hPa | - | - | - | - |
| 1777993033 | 20.56° C | 43% | 1011.3 hPa | 0 mm | - | - | - |
| 1777992733 | 20.56° C | 43% | 1011.5 hPa | 0 mm | - | - | - |
| 1777992434 | 21.11° C | 43% | 1011.3 hPa | 0 mm | - | - | - |
| 1777992133 | 20° C | 43% | 1011.5 hPa | 0 mm | - | - | - |
| 1777991833 | 20° C | 43% | 1011.5 hPa | 0 mm | - | - | - |
| 1777991533 | 20° C | 43% | 1011.5 hPa | 0 mm | - | - | - |
| 1777991233 | 20° C | 44% | 1011.6 hPa | 0 mm | - | - | - |
| 1777990932 | 20° C | 43% | 1011.5 hPa | 0 mm | - | - | - |
| 1777990633 | 20.56° C | 42% | 1011.5 hPa | 0 mm | - | - | - |
| 1777990333 | 20.56° C | 43% | 1011.6 hPa | 0 mm | - | - | - |
| 1777990033 | 21.11° C | 42% | 1011.5 hPa | 0 mm | - | - | - |
| 1777989733 | 21.67° C | 41% | 1011.5 hPa | - | - | - | - |
| 1777989433 | 22.22° C | 40% | 1011.6 hPa | 0 mm | - | - | - |
| 1777989133 | 22.78° C | 37% | 1011.5 hPa | 0 mm | - | - | - |
| 1777988833 | 22.78° C | 36% | 1011.5 hPa | 0 mm | - | - | - |
| 1777988532 | 23.33° C | 35% | 1011.4 hPa | 0 mm | - | - | - |
| 1777988232 | 23.89° C | 35% | 1011.4 hPa | 0 mm | - | - | - |
| 1777987933 | 23.33° C | 35% | 1011.6 hPa | 0 mm | - | - | - |
| 1777987632 | 23.33° C | 34% | 1011.4 hPa | 0 mm | - | - | - |
| 1777987332 | 23.89° C | 34% | 1011.4 hPa | 0 mm | - | - | - |
* Rain latest hour (hover to see other rain measurements)
** Current wind speed in m/s (hover to see current wind gust speed)